createdAt,value
2019-01-14T00:01:22.635Z,5.73
2019-01-14T00:04:12.106Z,4.90
2019-01-14T00:07:02.196Z,12.83
2019-01-14T00:09:51.318Z,6.40
2019-01-14T00:12:40.652Z,14.50
2019-01-14T00:15:31.031Z,2.97
2019-01-14T00:18:20.498Z,7.70
2019-01-14T00:21:09.998Z,12.77
2019-01-14T00:23:59.880Z,3.70
2019-01-14T00:26:49.774Z,2.60
2019-01-14T00:29:39.770Z,2.23
2019-01-14T00:32:29.337Z,6.30
2019-01-14T00:35:19.089Z,4.10
2019-01-14T00:38:09.047Z,6.40
2019-01-14T00:40:59.332Z,7.73
2019-01-14T00:43:49.122Z,9.10
2019-01-14T00:46:39.295Z,5.33
2019-01-14T00:49:28.827Z,6.97
2019-01-14T00:52:19.106Z,2.90
2019-01-14T00:55:10.450Z,7.60
2019-01-14T00:58:00.312Z,4.53
2019-01-14T01:00:50.362Z,5.70
2019-01-14T01:03:42.729Z,10.03
2019-01-14T01:06:32.210Z,7.67
2019-01-14T01:09:22.191Z,11.53
2019-01-14T01:12:12.528Z,19.43
2019-01-14T01:15:02.089Z,8.87
2019-01-14T01:17:52.261Z,16.27
2019-01-14T01:20:42.053Z,9.43
2019-01-14T01:23:31.859Z,15.83
2019-01-14T01:26:21.894Z,17.07
2019-01-14T01:29:12.069Z,17.83
2019-01-14T01:32:02.240Z,10.20
2019-01-14T01:34:52.265Z,17.67
2019-01-14T01:37:42.130Z,12.23
2019-01-14T01:40:32.144Z,16.10
2019-01-14T01:43:21.989Z,15.20
2019-01-14T01:46:12.169Z,12.97
2019-01-14T01:49:02.284Z,16.00
2019-01-14T01:51:51.734Z,13.60
2019-01-14T01:54:42.744Z,12.10
2019-01-14T01:57:32.818Z,25.10
2019-01-14T02:00:23.906Z,15.63
2019-01-14T02:03:14.198Z,22.93
2019-01-14T02:06:03.821Z,20.60
2019-01-14T02:08:54.483Z,18.13
2019-01-14T02:11:44.366Z,20.07
2019-01-14T02:14:34.497Z,13.70
2019-01-14T02:17:24.648Z,20.07
2019-01-14T02:20:16.806Z,26.20
2019-01-14T02:23:06.875Z,11.43
2019-01-14T02:25:56.539Z,20.53
2019-01-14T02:28:46.838Z,22.63
2019-01-14T02:31:36.901Z,24.63
2019-01-14T02:34:26.044Z,24.43
2019-01-14T02:37:15.463Z,20.87
2019-01-14T02:40:07.635Z,28.10
2019-01-14T02:42:57.634Z,27.87
2019-01-14T02:45:48.780Z,36.50
2019-01-14T02:48:38.564Z,20.53
2019-01-14T02:51:28.488Z,28.87
2019-01-14T02:54:18.216Z,21.13
2019-01-14T02:57:07.837Z,18.33
2019-01-14T02:59:57.864Z,22.63
2019-01-14T03:02:47.784Z,20.57
2019-01-14T03:05:37.619Z,33.43
2019-01-14T03:08:27.824Z,24.50
2019-01-14T03:11:17.988Z,22.30
2019-01-14T03:14:07.610Z,17.63
2019-01-14T03:16:57.855Z,16.73
2019-01-14T03:19:48.117Z,28.70
2019-01-14T03:22:38.512Z,19.13
2019-01-14T03:25:28.658Z,29.07
2019-01-14T03:28:18.700Z,28.20
2019-01-14T03:31:08.627Z,27.27
2019-01-14T03:33:58.156Z,23.63
2019-01-14T03:36:48.220Z,28.43
2019-01-14T03:39:38.345Z,32.07
2019-01-14T03:42:28.368Z,26.10
2019-01-14T03:45:18.221Z,33.53
2019-01-14T03:48:08.279Z,28.63
2019-01-14T03:50:58.362Z,31.83
2019-01-14T03:53:48.245Z,25.03
2019-01-14T03:56:38.237Z,20.80
2019-01-14T03:59:28.092Z,27.97
2019-01-14T04:02:18.021Z,18.37
2019-01-14T04:05:09.718Z,31.47
2019-01-14T04:07:59.507Z,48.60
2019-01-14T04:10:49.139Z,31.57
2019-01-14T04:13:38.946Z,34.60
2019-01-14T04:16:29.003Z,27.17
2019-01-14T04:19:18.691Z,35.90
2019-01-14T04:22:08.981Z,22.37
2019-01-14T04:24:59.164Z,28.80
2019-01-14T04:27:49.052Z,27.67
2019-01-14T04:30:39.094Z,35.67
2019-01-14T04:33:29.410Z,21.80
2019-01-14T04:36:19.099Z,30.67
2019-01-14T04:39:11.034Z,23.67
2019-01-14T04:42:00.885Z,27.17
2019-01-14T04:44:51.687Z,19.00
2019-01-14T04:47:41.761Z,34.17
2019-01-14T04:50:31.322Z,23.67
2019-01-14T04:53:21.554Z,26.73
2019-01-14T04:56:11.333Z,29.83
2019-01-14T04:59:01.355Z,19.33
2019-01-14T05:01:51.169Z,45.97
2019-01-14T05:04:41.209Z,23.83
2019-01-14T05:07:30.766Z,31.60
2019-01-14T05:10:21.037Z,35.33
2019-01-14T05:13:11.098Z,34.50
2019-01-14T05:16:01.184Z,33.90
2019-01-14T05:18:51.309Z,22.70
2019-01-14T05:21:41.702Z,24.50
2019-01-14T05:24:31.643Z,39.63
2019-01-14T05:27:21.265Z,33.97
2019-01-14T05:30:12.792Z,28.63
2019-01-14T05:33:03.118Z,17.70
2019-01-14T05:35:53.307Z,24.37
2019-01-14T05:38:43.354Z,33.23
2019-01-14T05:41:33.198Z,19.33
2019-01-14T05:44:23.102Z,27.03
2019-01-14T05:47:13.142Z,24.70
2019-01-14T05:50:03.169Z,26.80
2019-01-14T05:52:53.210Z,23.93
2019-01-14T05:55:42.852Z,26.83
2019-01-14T05:58:32.964Z,37.50
2019-01-14T06:01:22.802Z,36.20
2019-01-14T06:04:12.582Z,36.90
2019-01-14T06:07:02.420Z,29.13
2019-01-14T06:09:52.574Z,29.30
2019-01-14T06:12:42.750Z,20.77
2019-01-14T06:15:32.593Z,49.50
2019-01-14T06:18:22.617Z,17.73
2019-01-14T06:21:12.397Z,27.47
2019-01-14T06:24:02.502Z,23.63
2019-01-14T06:26:52.358Z,38.40
2019-01-14T06:29:42.098Z,26.30
2019-01-14T06:32:33.203Z,35.90
2019-01-14T06:35:24.102Z,35.20
2019-01-14T06:38:14.156Z,31.47
2019-01-14T06:41:06.894Z,38.07
2019-01-14T06:43:56.673Z,28.03
2019-01-14T06:46:46.193Z,22.80
2019-01-14T06:49:36.154Z,19.33
2019-01-14T06:52:25.961Z,20.80
2019-01-14T06:55:16.652Z,25.90
2019-01-14T06:58:07.801Z,33.37
2019-01-14T07:00:58.138Z,24.40
2019-01-14T07:03:48.204Z,21.53
2019-01-14T07:06:37.950Z,26.07
2019-01-14T07:09:27.686Z,31.47
2019-01-14T07:12:17.224Z,24.33
2019-01-14T07:15:08.108Z,24.43
2019-01-14T07:17:58.002Z,32.77
2019-01-14T07:20:47.793Z,17.73
2019-01-14T07:23:37.585Z,15.37
2019-01-14T07:26:27.430Z,20.27
2019-01-14T07:29:17.743Z,22.00
2019-01-14T07:32:07.629Z,17.27
2019-01-14T07:34:57.777Z,19.53
2019-01-14T07:37:48.532Z,19.63
2019-01-14T07:40:38.025Z,14.80
2019-01-14T07:43:27.985Z,13.13
2019-01-14T07:46:17.344Z,13.50
2019-01-14T07:49:06.830Z,21.57
2019-01-14T07:51:56.801Z,14.13
2019-01-14T07:54:46.932Z,29.57
2019-01-14T07:57:37.266Z,12.93
2019-01-14T08:00:28.110Z,13.67
2019-01-14T08:03:19.260Z,23.93
2019-01-14T08:06:08.769Z,16.57
2019-01-14T08:08:58.824Z,22.70
2019-01-14T08:11:48.819Z,14.37
2019-01-14T08:14:38.959Z,10.50
2019-01-14T08:17:28.595Z,12.40
2019-01-14T08:20:18.591Z,16.23
2019-01-14T08:23:08.912Z,12.67
2019-01-14T08:25:58.694Z,10.60
2019-01-14T08:28:48.147Z,16.90
2019-01-14T08:31:38.378Z,12.30
2019-01-14T08:34:28.127Z,14.47
2019-01-14T08:37:17.926Z,14.27
2019-01-14T08:40:09.698Z,11.60
2019-01-14T08:43:00.868Z,7.60
2019-01-14T08:45:50.938Z,17.27
2019-01-14T08:48:48.665Z,15.40
2019-01-14T08:51:33.032Z,9.23
2019-01-14T08:54:22.815Z,17.57
2019-01-14T08:57:12.749Z,13.93
2019-01-14T09:00:03.521Z,16.90
2019-01-14T09:02:54.618Z,9.70
2019-01-14T09:05:44.515Z,16.33
2019-01-14T09:08:34.480Z,17.33
2019-01-14T09:11:23.618Z,9.77
2019-01-14T09:14:13.277Z,21.57
2019-01-14T09:17:06.567Z,14.20
2019-01-14T09:19:56.392Z,10.07
2019-01-14T09:22:46.758Z,11.93
2019-01-14T09:25:36.968Z,7.60
2019-01-14T09:28:27.035Z,13.90
2019-01-14T09:31:16.935Z,11.23
2019-01-14T09:34:07.748Z,6.20
2019-01-14T09:36:57.918Z,16.43
2019-01-14T09:39:48.001Z,14.87
2019-01-14T09:42:38.095Z,8.50
2019-01-14T09:45:27.873Z,13.00
2019-01-14T09:48:17.660Z,14.67
2019-01-14T09:51:07.485Z,18.23
2019-01-14T09:53:57.577Z,12.27
2019-01-14T09:56:47.887Z,11.77
2019-01-14T09:59:37.873Z,14.70
2019-01-14T10:02:27.737Z,12.00
2019-01-14T10:05:20.138Z,12.67
2019-01-14T10:08:10.888Z,11.33
2019-01-14T10:11:00.836Z,13.20
2019-01-14T10:13:51.080Z,23.47
2019-01-14T10:16:42.387Z,21.10
2019-01-14T10:19:32.385Z,14.07
2019-01-14T10:22:22.223Z,14.80
2019-01-14T10:25:12.791Z,7.93
2019-01-14T10:28:02.973Z,16.40
2019-01-14T10:30:53.536Z,19.37
2019-01-14T10:33:43.617Z,12.60
2019-01-14T10:36:33.667Z,11.97
2019-01-14T10:39:23.662Z,12.90
2019-01-14T10:42:13.596Z,11.93
2019-01-14T10:45:03.774Z,22.97
2019-01-14T10:47:53.541Z,21.20
2019-01-14T10:50:43.630Z,8.33
2019-01-14T10:53:33.437Z,14.23
2019-01-14T10:56:23.392Z,11.43
2019-01-14T10:59:13.317Z,16.10
2019-01-14T11:02:04.313Z,21.43
2019-01-14T11:04:54.761Z,22.70
2019-01-14T11:07:44.641Z,12.30
2019-01-14T11:10:34.290Z,13.23
2019-01-14T11:13:24.253Z,16.40
2019-01-14T11:16:14.400Z,12.00
2019-01-14T11:19:04.763Z,9.27
2019-01-14T11:21:54.921Z,20.53
2019-01-14T11:24:51.700Z,12.47
2019-01-14T11:27:41.465Z,11.10
2019-01-14T11:30:33.546Z,12.27
2019-01-14T11:33:23.646Z,15.20
2019-01-14T11:36:13.502Z,14.80
2019-01-14T11:39:05.589Z,15.87
2019-01-14T11:41:55.640Z,10.23
2019-01-14T11:44:45.888Z,10.57
2019-01-14T11:47:36.008Z,12.70
2019-01-14T11:50:26.078Z,15.93
2019-01-14T11:53:17.236Z,10.17
2019-01-14T11:56:07.599Z,14.40
2019-01-14T11:58:57.567Z,6.83
2019-01-14T12:01:47.330Z,13.87
2019-01-14T12:04:37.484Z,9.43
2019-01-14T12:07:27.917Z,11.10
2019-01-14T12:10:18.134Z,30.47
2019-01-14T12:13:07.673Z,17.33
2019-01-14T12:15:57.362Z,9.30
2019-01-14T12:18:46.940Z,9.17
2019-01-14T12:21:36.899Z,10.90
2019-01-14T12:24:26.685Z,15.73
2019-01-14T12:27:16.558Z,12.40
2019-01-14T12:30:19.451Z,17.33
2019-01-14T12:33:09.912Z,14.30
2019-01-14T12:35:59.638Z,11.07
2019-01-14T12:38:49.506Z,17.63
2019-01-14T12:41:39.225Z,11.90
2019-01-14T12:44:29.085Z,18.77
2019-01-14T12:47:18.815Z,6.60
2019-01-14T12:50:11.925Z,5.50
2019-01-14T12:53:01.663Z,9.37
2019-01-14T12:55:52.032Z,10.20
2019-01-14T12:58:41.628Z,5.90
2019-01-14T13:01:32.109Z,9.50
2019-01-14T13:04:22.142Z,11.70
2019-01-14T13:07:12.378Z,2.80
2019-01-14T13:10:02.194Z,24.43
2019-01-14T13:12:52.262Z,7.17
2019-01-14T13:15:42.183Z,6.33
2019-01-14T13:18:31.937Z,3.67
2019-01-14T13:21:22.209Z,12.87
2019-01-14T13:24:12.397Z,6.07
2019-01-14T13:27:03.344Z,18.13
2019-01-14T13:29:53.313Z,12.77
2019-01-14T13:32:43.434Z,12.03
2019-01-14T13:35:33.392Z,15.10
2019-01-14T13:38:23.138Z,14.10
2019-01-14T13:41:13.040Z,9.53
2019-01-14T13:44:02.913Z,13.23
2019-01-14T13:46:53.987Z,18.50
2019-01-14T13:49:46.632Z,6.77
2019-01-14T13:52:36.940Z,8.10
2019-01-14T13:55:27.549Z,10.10
2019-01-14T13:58:17.712Z,5.07
2019-01-14T14:01:07.616Z,8.30
2019-01-14T14:03:57.309Z,8.13
2019-01-14T14:06:47.412Z,20.43
2019-01-14T14:09:41.158Z,6.27
2019-01-14T14:12:28.226Z,7.23
2019-01-14T14:15:17.920Z,9.30
2019-01-14T14:18:08.061Z,18.37
2019-01-14T14:20:58.209Z,12.80
2019-01-14T14:23:48.025Z,13.07
2019-01-14T14:26:37.642Z,9.47
2019-01-14T14:29:27.608Z,2.97
2019-01-14T14:32:17.866Z,4.90
2019-01-14T14:35:08.585Z,6.63
2019-01-14T14:38:01.342Z,7.00
2019-01-14T14:40:50.631Z,1.90
2019-01-14T14:43:40.396Z,4.30
2019-01-14T14:46:30.643Z,15.37
2019-01-14T14:49:20.710Z,2.20
2019-01-14T14:52:10.779Z,9.10
2019-01-14T14:55:00.864Z,8.33
2019-01-14T14:57:51.067Z,6.63
2019-01-14T15:00:40.856Z,8.70
2019-01-14T15:03:31.625Z,6.37
2019-01-14T15:06:21.336Z,8.53
2019-01-14T15:09:11.442Z,15.30
2019-01-14T15:12:01.738Z,10.50
2019-01-14T15:14:52.136Z,6.77
2019-01-14T15:17:42.162Z,20.77
2019-01-14T15:20:32.447Z,12.43
2019-01-14T15:23:22.923Z,3.07
2019-01-14T15:26:12.981Z,6.50
2019-01-14T15:29:02.860Z,17.87
2019-01-14T15:31:52.800Z,8.83
2019-01-14T15:34:42.426Z,10.70
2019-01-14T15:37:33.113Z,12.00
2019-01-14T15:40:25.027Z,8.67
2019-01-14T15:43:14.422Z,10.13
2019-01-14T15:46:04.226Z,10.57
2019-01-14T15:48:54.252Z,5.70
2019-01-14T15:51:43.837Z,6.77
2019-01-14T15:54:34.133Z,6.60
2019-01-14T15:57:24.072Z,8.83
2019-01-14T16:00:16.548Z,7.57
2019-01-14T16:03:06.637Z,4.67
2019-01-14T16:05:56.516Z,13.07
2019-01-14T16:08:46.625Z,6.40
2019-01-14T16:11:36.616Z,5.47
2019-01-14T16:14:26.869Z,11.90
2019-01-14T16:17:16.498Z,8.43
2019-01-14T16:20:08.963Z,9.50
2019-01-14T16:22:58.968Z,11.60
2019-01-14T16:25:49.140Z,11.87
2019-01-14T16:28:40.134Z,15.23
2019-01-14T16:31:29.846Z,6.20
2019-01-14T16:34:19.594Z,32.00
2019-01-14T16:37:09.985Z,15.20
2019-01-14T16:39:59.844Z,8.20
2019-01-14T16:42:50.052Z,8.57
2019-01-14T16:45:40.222Z,9.50
2019-01-14T16:48:30.148Z,10.80
2019-01-14T16:51:19.175Z,7.30
2019-01-14T16:54:09.300Z,14.07
2019-01-14T16:56:59.273Z,13.03
2019-01-14T16:59:49.497Z,13.73
2019-01-14T17:02:39.811Z,14.63
2019-01-14T17:05:29.859Z,21.33
2019-01-14T17:08:19.917Z,17.70
2019-01-14T17:11:09.580Z,5.90
2019-01-14T17:13:59.197Z,10.73
2019-01-14T17:16:48.961Z,7.10
2019-01-14T17:19:39.118Z,9.37
2019-01-14T17:22:29.311Z,8.33
2019-01-14T17:25:19.303Z,15.63
2019-01-14T17:28:09.441Z,11.07
2019-01-14T17:30:58.938Z,11.03
2019-01-14T17:33:48.780Z,8.40
2019-01-14T17:36:38.340Z,5.67
2019-01-14T17:39:29.214Z,10.90
2019-01-14T17:42:19.981Z,6.73
2019-01-14T17:45:10.595Z,13.70
2019-01-14T17:48:00.058Z,7.47
2019-01-14T17:50:50.215Z,13.10
2019-01-14T17:53:40.418Z,8.43
2019-01-14T17:56:29.966Z,9.90
2019-01-14T17:59:20.799Z,11.60
2019-01-14T18:02:10.319Z,7.60
2019-01-14T18:04:59.852Z,12.53
2019-01-14T18:07:49.447Z,19.70
2019-01-14T18:10:40.177Z,10.00
2019-01-14T18:13:30.281Z,7.33
2019-01-14T18:16:19.710Z,7.90
2019-01-14T18:19:09.532Z,19.07
2019-01-14T18:21:59.264Z,12.77
2019-01-14T18:24:48.962Z,6.80
2019-01-14T18:27:38.414Z,3.87
2019-01-14T18:30:28.402Z,18.47
2019-01-14T18:33:21.568Z,10.70
2019-01-14T18:36:11.913Z,8.87
2019-01-14T18:39:01.700Z,10.03
2019-01-14T18:41:52.325Z,11.90
2019-01-14T18:44:42.464Z,16.27
2019-01-14T18:47:31.939Z,7.50
2019-01-14T18:50:24.128Z,9.13
2019-01-14T18:53:14.090Z,16.47
2019-01-14T18:56:03.548Z,8.33
2019-01-14T18:58:54.934Z,11.63
2019-01-14T19:01:44.817Z,8.90
2019-01-14T19:04:34.803Z,14.00
2019-01-14T19:07:25.069Z,17.80
2019-01-14T19:10:15.872Z,8.00
2019-01-14T19:13:06.046Z,20.93
2019-01-14T19:15:58.551Z,7.60
2019-01-14T19:18:48.012Z,10.50
2019-01-14T19:21:37.954Z,22.63
2019-01-14T19:24:27.790Z,10.50
2019-01-14T19:27:18.186Z,12.57
2019-01-14T19:30:12.430Z,13.97
2019-01-14T19:33:03.395Z,18.23
2019-01-14T19:35:53.676Z,12.93
2019-01-14T19:38:43.509Z,8.53
2019-01-14T19:41:32.965Z,8.07
2019-01-14T19:44:22.892Z,11.77
2019-01-14T19:47:12.736Z,12.37
2019-01-14T19:50:03.817Z,8.20
2019-01-14T19:52:55.633Z,3.93
2019-01-14T19:55:45.661Z,21.40
2019-01-14T19:58:35.463Z,8.83
2019-01-14T20:01:25.229Z,11.50
2019-01-14T20:04:15.199Z,15.60
2019-01-14T20:07:10.503Z,9.00
2019-01-14T20:09:56.113Z,12.40
2019-01-14T20:12:46.404Z,10.00
2019-01-14T20:15:36.088Z,8.67
2019-01-14T20:18:26.456Z,7.33
2019-01-14T20:21:16.457Z,9.20
2019-01-14T20:24:07.043Z,9.57
2019-01-14T20:26:57.492Z,6.03
2019-01-14T20:29:47.645Z,4.50
2019-01-14T20:32:37.432Z,11.70
2019-01-14T20:35:27.995Z,7.80
2019-01-14T20:38:17.895Z,7.47
2019-01-14T20:41:08.029Z,16.57
2019-01-14T20:44:05.047Z,9.53
2019-01-14T20:46:49.608Z,10.20
2019-01-14T20:49:39.389Z,16.03
2019-01-14T20:52:29.341Z,9.57
2019-01-14T20:55:19.393Z,17.93
2019-01-14T20:58:09.642Z,11.60
2019-01-14T21:00:59.401Z,9.90
2019-01-14T21:03:49.685Z,10.60
2019-01-14T21:06:39.649Z,11.60
2019-01-14T21:09:29.209Z,9.50
2019-01-14T21:12:19.005Z,12.70
2019-01-14T21:15:09.168Z,14.37
2019-01-14T21:17:59.427Z,12.87
2019-01-14T21:20:49.811Z,7.77
2019-01-14T21:23:39.867Z,21.73
2019-01-14T21:26:29.994Z,13.17
2019-01-14T21:29:20.169Z,12.30
2019-01-14T21:32:09.605Z,7.63
2019-01-14T21:34:59.582Z,3.07
2019-01-14T21:37:50.962Z,5.40
2019-01-14T21:40:41.268Z,5.60
2019-01-14T21:43:31.401Z,8.30
2019-01-14T21:46:20.652Z,7.97
2019-01-14T21:49:10.882Z,9.57
2019-01-14T21:52:01.689Z,16.60
2019-01-14T21:54:51.766Z,14.73
2019-01-14T21:57:42.076Z,15.70
2019-01-14T22:00:32.111Z,7.53
2019-01-14T22:03:21.811Z,6.40
2019-01-14T22:06:11.359Z,9.53
2019-01-14T22:09:01.111Z,21.37
2019-01-14T22:11:52.442Z,11.93
2019-01-14T22:14:42.301Z,8.10
2019-01-14T22:17:32.290Z,11.90
2019-01-14T22:20:28.619Z,13.70
2019-01-14T22:23:22.044Z,10.73
2019-01-14T22:26:11.880Z,17.80
2019-01-14T22:29:01.798Z,11.80
2019-01-14T22:31:51.967Z,10.10
2019-01-14T22:34:41.766Z,19.60
2019-01-14T22:37:31.549Z,10.03
2019-01-14T22:40:21.840Z,11.87
2019-01-14T22:43:11.493Z,8.50
2019-01-14T22:46:01.434Z,13.43
2019-01-14T22:48:51.361Z,5.10
2019-01-14T22:51:41.080Z,9.80
2019-01-14T22:54:30.600Z,7.70
2019-01-14T22:57:21.899Z,8.10
2019-01-14T23:01:07.282Z,12.70
2019-01-14T23:03:57.352Z,11.70
2019-01-14T23:06:46.836Z,9.60
2019-01-14T23:09:37.647Z,9.60
2019-01-14T23:12:27.870Z,11.30
2019-01-14T23:15:18.207Z,13.63
2019-01-14T23:18:08.325Z,19.03
2019-01-14T23:20:58.412Z,16.57
2019-01-14T23:23:47.955Z,22.43
2019-01-14T23:26:37.234Z,16.67
2019-01-14T23:29:26.969Z,20.27
2019-01-14T23:32:16.836Z,24.27
2019-01-14T23:35:07.491Z,11.93
2019-01-14T23:37:57.527Z,15.50
2019-01-14T23:40:47.211Z,11.43
2019-01-14T23:43:36.954Z,15.43
2019-01-14T23:46:26.640Z,13.67
2019-01-14T23:49:16.782Z,16.13
2019-01-14T23:52:06.679Z,14.03
2019-01-14T23:54:56.760Z,11.53
2019-01-14T23:57:46.998Z,24.23
